JA701J damaged in tail strike at HND!

Discussion in 'JAL | Mileage Bank' started by QSG, Apr 1, 2012.  |  Print Topic

  1. QSG
    Original Member

    QSG Gold Member

    Messages:
    1,834
    Likes Received:
    2,071
    Status Points:
    1,270
  2. QSG
    Original Member

    QSG Gold Member

    Messages:
    1,834
    Likes Received:
    2,071
    Status Points:
    1,270
    Accident: JAL B772 at Tokyo on Mar 31st 2012, tail strike on go around​

    By Simon Hradecky, created Saturday, Mar 31st 2012 20:38Z, last updated Saturday, Mar 31st 2012 20:42Z​


    A JAL Japan Airlines Boeing 777-200, registration JA701J performing flight JL-82 from Shanghai Hongqiao (China) to Tokyo Haneda (Japan) with 296 passengers and 12 crew, was on approach to Haneda Airport at 16:10L (07:10Z) when in the flare the aircraft caught a gust prompting the crew to go-around, the tail however contacted the runway surface leaving tracks of about 7 meters/23 feet length and about 50cm/1.6 feet width on the runway. The aircraft climbed out and landed on the second attempt about 28 minutes later. No injuries occurred, the aircraft received substantial damage.

    Japan's Ministry of Transport rated the occurrence an accident reporting the aircraft received damage the pressure bulkhead besides deformations of the fuselage and abrasions to the underside of the belly.

    Metars:
    RJTT 310900Z 34020KT 9999 FEW015 BKN035 11/03 Q1000 TEMPO 34020G30KT RMK 1SC0157SC035 A2953
    RJTT 310830Z 34020KT 9999 FEW010 BKN030 11/05 Q0999 TEMPO 34020G30KT RMK 1ST0107SC030 A2951
    RJTT 310800Z 36015KT 9999 FEW010 BKN025 10/07 Q0998 NOSIG RMK 1ST010 7SC025 A2949
    RJTT 310730Z 01013KT 9999 -SHRA FEW010 SCT015 BKN017 10/07 Q0997 NOSIG RMK 1ST010 3CU015 6SC017 A2946
    RJTT 310724Z 01012KT 9999 -SHRA FEW010 SCT013 BKN015 10/08 Q0998 RMK 1ST010 3CU013 6SC015 A2947
    RJTT 310714Z 35013KT 7000 SHRA FEW010 SCT012 BKN015 09/07 Q0997 RMK 1ST010 3CU012 6SC015 A2946
    RJTT 310700Z 35017KT 7000 SHRA FEW010 BKN012 BKN015 10/07 Q0998 BECMG TL0730 NSW RMK 1ST010 5CU012 6SC015 A2948 MOD TURB BTN 3000 AND 5000FT PLUTO BY B767 AT 06
    RJTT 310638Z 35012KT 9000 -SHRA FEW010 BKN015 BKN060 12/09 Q0997 RMK 1ST010 5SC015 6SC060 A2946 P/RR
    RJTT 310632Z 29014G26KT 220V350 9000 -SHRA FEW010 SCT060 BKN080 15/12 Q0997 RMK1ST010 4SC060 7AC080 A2945
    RJTT 310630Z 23016G26KT 190V270 9000 -SHRA FEW010 SCT060 BKN080 16/13 Q0997 BECMG TL0640 34020KT RMK 1ST010 4SC060 7AC080 A2945 MOD TURB 4000FT SMILE BY B763 AT
    RJTT 310608Z 21023G34KT 7000 -SHRA FEW008 SCT040 BKN060 16/14 Q0996 RMK 1ST008 4CU040 6SC060 A2943
    RJTT 310600Z 21023G34KT 5000 R34L/P1800N R22/P1800N R16L/P1800N R23/1100VP1800USHRA BR FEW008 SCT015 BKN060 16/14 Q0996 BECMG FM0700 TL0730 34020KT NSW RMK 1ST
    RJTT 310547Z 19030G43KT 2300 R34L/0450VP1800D R22/1800N R16L/1600VP1800D R23/1300VP1800D +SHRA BR FEW010 SCT015 BKN020 16/14 Q0996 RMK 1ST010 4CU015 6CU020 A294
    RJTT 310540Z 19030G42KT 3000 SHRA BR FEW010 SCT015 BKN020 16/14 Q0995 RMK 1ST010 3CU015 5CU020 A2940
    RJTT 310530Z 19030G41KT 4000 -SHRA BR FEW015 SCT020 BKN025 17/13 Q0995 TEMPO 20040G50KT SHRA RMK 2CU015 4CU020 6CU025 A2940
    RJTT 310500Z 20028G41KT 8000 -SHRA FEW015 SCT020 BKN025 16/14 Q0995 TEMPO 20040G50KT 3000 SHRA RMK 2CU015 4CU020 6CU025 A2939 P/FR
    RJTT 310430Z 20030G43KT 8000 -SHRA FEW015 SCT020 BKN025 16/13 Q0996 TEMPO 20040G50KT 3000 SHRA RMK 1CU015 3CU020 6CU025 A2942 P/FR
    RJTT 310410Z 20027G46KT 9000 -SHRA FEW020 SCT025 BKN030 17/13 Q0997 RMK 1CU020 4CU025 6CU030 A2944 P/FR
    RJTT 310400Z 19027G39KT 9000 SHRA FEW020 SCT025 BKN030 17/13 Q0997 TEMPO 20040G50KT 3000 SHRA RMK 1CU020 4CU025 6CU030 A2945​
     
  3. fumitani
    Original Member

    fumitani Gold Member

    Messages:
    15,357
    Likes Received:
    39,305
    Status Points:
    19,995
    QSG haven't u been following jal.co.jp or airliners.net both have this news :p
     
  4. QSG
    Original Member

    QSG Gold Member

    Messages:
    1,834
    Likes Received:
    2,071
    Status Points:
    1,270
    No, it was on the regular Yahoo news feed.....where was JP to post this?:p
     
  5. JALPak
    Original Member

    JALPak Gold Member

    Messages:
    152,236
    Likes Received:
    53,266
    Status Points:
    20,020
    i tweeted about this a while back. Gusty wind (typhoon level) at TYO and lots of flights were delayed on that day due to bad weather
     
  6. JALPak
    Original Member

    JALPak Gold Member

    Messages:
    152,236
    Likes Received:
    53,266
    Status Points:
    20,020
    and our lounge thread too :p
     
  7. QSG
    Original Member

    QSG Gold Member

    Messages:
    1,834
    Likes Received:
    2,071
    Status Points:
    1,270
    The plane will be out of service for some time......quess they can use a domestic aircraft!:eek:
     
  8. JALPak
    Original Member

    JALPak Gold Member

    Messages:
    152,236
    Likes Received:
    53,266
    Status Points:
    20,020
    They have 3 with W32 config and should be fine. It's only used on HNL and SHA. If needed, they can always use 7J2 instead :p
     
  9. fumitani
    Original Member

    fumitani Gold Member

    Messages:
    15,357
    Likes Received:
    39,305
    Status Points:
    19,995
    the ocassionally run it on NRT-BKK runs
     
  10. JALPak
    Original Member

    JALPak Gold Member

    Messages:
    152,236
    Likes Received:
    53,266
    Status Points:
    20,020
    Occasionally on HKG too but they can substitute that with the long haul config 777 instead
     
  11. JALPak
    Original Member

    JALPak Gold Member

    Messages:
    152,236
    Likes Received:
    53,266
    Status Points:
    20,020
  12. QSG
    Original Member

    QSG Gold Member

    Messages:
    1,834
    Likes Received:
    2,071
    Status Points:
    1,270
    Ouch, my hull hurts !:p
     
  13. fumitani
    Original Member

    fumitani Gold Member

    Messages:
    15,357
    Likes Received:
    39,305
    Status Points:
    19,995
    please fix the aircraft...and i'm not sitting on JA701J :p
     
  14. JALPak
    Original Member

    JALPak Gold Member

    Messages:
    152,236
    Likes Received:
    53,266
    Status Points:
    20,020
    tatami likes this.

Share This Page